Peer, Belgium
Current Conditions -  °F | °C
As of 3:39 PM on Friday 28 Nov 2014 (Local Time) from EBBL Reporting Station
Broken Clouds Broken Clouds  
Wind Chill: 42°   Ceiling: 12000
Heat Index: 46°   Visibility: 4mi
Dew Point: 41°   Wind: 9mph
Humidity: 81%   Direction: 80°E
Pressure: 29.77"   Gusts: NA
Location:  51.13°N, 5.46°E
Report Text: EBBL 281439Z AUTO 08008KT 7000 FEW100/// BKN120/// 08/05 Q1008 WHT
Loading
Personal Weather Stations






























Interactive Weather Map New forecast layout! Learn more

10-Day Weather Forecast

Advertisements
Track Severe Weather on mobile